createdAt,value
2019-05-18T00:01:37.183Z,99149.63
2019-05-18T00:06:42.487Z,99151.28
2019-05-18T00:16:59.107Z,99147.57
2019-05-18T00:22:04.463Z,99147.77
2019-05-18T00:27:09.717Z,99137.73
2019-05-18T00:32:15.043Z,99139.59
2019-05-18T00:37:20.291Z,99133.19
2019-05-18T00:42:25.571Z,99132.22
2019-05-18T00:47:40.888Z,99139.27
2019-05-18T00:52:37.788Z,99136.58
2019-05-18T00:57:43.056Z,99128.16
2019-05-18T01:02:48.319Z,99128.16
2019-05-18T01:07:53.603Z,99127.06
2019-05-18T01:12:58.905Z,99123.49
2019-05-18T01:18:04.351Z,99122.63
2019-05-18T01:23:09.655Z,99119.55
2019-05-18T01:28:14.930Z,99115.59
2019-05-18T01:33:20.048Z,99105.66
2019-05-18T01:38:25.280Z,99104.92
2019-05-18T01:43:30.511Z,99094.95
2019-05-18T01:48:35.726Z,99091.56
2019-05-18T01:53:40.923Z,99088.41
2019-05-18T01:58:46.262Z,99085.42
2019-05-18T02:03:51.690Z,99078.34
2019-05-18T02:08:56.925Z,99075.91
2019-05-18T02:14:02.366Z,99074.39
2019-05-18T02:19:07.591Z,99073.33
2019-05-18T02:24:12.838Z,99070.80
2019-05-18T02:29:18.138Z,99069.08
2019-05-18T02:34:23.350Z,99064.30
2019-05-18T02:39:28.591Z,99065.05
2019-05-18T02:44:33.939Z,99060.94
2019-05-18T02:49:39.283Z,99058.19
2019-05-18T02:54:44.607Z,99057.13
2019-05-18T02:59:49.826Z,99047.52
2019-05-18T03:04:55.163Z,99046.79
2019-05-18T03:10:00.240Z,99051.77
2019-05-18T03:15:05.730Z,99053.75
2019-05-18T03:20:11.401Z,99056.09
2019-05-18T03:25:16.771Z,99050.81
2019-05-18T03:30:22.089Z,99053.02
2019-05-18T03:35:27.372Z,99050.09
2019-05-18T03:40:32.598Z,99054.90
2019-05-18T03:45:37.823Z,99044.56
2019-05-18T03:50:43.682Z,99045.32
2019-05-18T03:55:48.905Z,99039.79
2019-05-18T04:00:54.184Z,99035.01
2019-05-18T04:05:59.501Z,99036.87
2019-05-18T04:11:04.915Z,99036.72
2019-05-18T04:16:10.224Z,99021.41
2019-05-18T04:21:15.596Z,99027.94
2019-05-18T04:26:20.779Z,99020.14
2019-05-18T04:31:26.005Z,99024.37
2019-05-18T04:36:31.268Z,99020.96
2019-05-18T04:41:36.612Z,99016.37
2019-05-18T04:46:41.927Z,99016.54
2019-05-18T04:51:47.060Z,99018.13
2019-05-18T04:56:52.304Z,99015.38
2019-05-18T05:01:57.644Z,99005.77
2019-05-18T05:07:02.775Z,99004.67
2019-05-18T05:12:08.107Z,99005.29
2019-05-18T05:17:13.312Z,99015.17
2019-05-18T05:22:18.719Z,99021.77
2019-05-18T05:27:23.999Z,99029.16
2019-05-18T05:32:29.322Z,99022.28
2019-05-18T05:37:34.655Z,99032.66
2019-05-18T05:42:39.955Z,99035.67
2019-05-18T05:47:45.165Z,99026.84
2019-05-18T05:52:50.364Z,99026.09
2019-05-18T05:57:55.573Z,99021.42
2019-05-18T06:03:00.798Z,99025.44
2019-05-18T06:08:06.290Z,99028.19
2019-05-18T06:13:11.631Z,99028.70
2019-05-18T06:18:16.898Z,99036.77
2019-05-18T06:23:22.217Z,99032.96
2019-05-18T06:28:27.642Z,99040.44
2019-05-18T06:33:32.805Z,99037.39
2019-05-18T06:38:38.294Z,99046.00
2019-05-18T06:43:43.635Z,99047.69
2019-05-18T06:48:48.927Z,99040.95
2019-05-18T06:53:54.406Z,99043.28
2019-05-18T06:59:00.920Z,99042.42
2019-05-18T07:04:06.292Z,99049.63
2019-05-18T07:09:14.078Z,99052.27
2019-05-18T07:14:25.729Z,99046.94
2019-05-18T07:19:25.734Z,99046.94
2019-05-18T07:24:31.105Z,99060.73
2019-05-18T07:29:36.432Z,99064.48
2019-05-18T07:34:41.670Z,99063.48
2019-05-18T07:39:46.978Z,99057.14
2019-05-18T07:48:57.148Z,99063.78
2019-05-18T07:54:01.723Z,99064.92
2019-05-18T07:59:06.783Z,99066.30
2019-05-18T08:04:11.628Z,99059.26
2019-05-18T08:09:16.399Z,99064.41
2019-05-18T08:14:21.387Z,99071.00
2019-05-18T08:19:26.391Z,99069.89
2019-05-18T08:24:31.647Z,99067.95
2019-05-18T08:29:36.952Z,99073.07
2019-05-18T08:34:41.628Z,99070.87
2019-05-18T08:39:46.295Z,99070.87
2019-05-18T08:44:51.106Z,99072.97
2019-05-18T08:49:55.788Z,99073.00
2019-05-18T08:55:00.599Z,99073.00
2019-05-18T09:00:05.834Z,99066.36
2019-05-18T09:05:11.690Z,99065.62
2019-05-18T09:10:16.666Z,99071.36
2019-05-18T09:15:22.599Z,99078.47
2019-05-18T09:20:27.827Z,99078.86
2019-05-18T09:25:32.719Z,99077.91
2019-05-18T09:30:37.790Z,99077.42
2019-05-18T09:35:42.584Z,99073.68
2019-05-18T09:40:47.155Z,99078.09
2019-05-18T09:45:51.932Z,99074.77
2019-05-18T09:50:56.735Z,99075.66
2019-05-18T09:56:01.501Z,99080.52
2019-05-18T10:01:06.327Z,99077.08
2019-05-18T10:06:11.461Z,99077.59
2019-05-18T10:11:16.293Z,99082.62
2019-05-18T10:16:20.902Z,99082.38
2019-05-18T10:21:25.738Z,99087.01
2019-05-18T10:26:30.498Z,99097.96
2019-05-18T10:31:35.267Z,99091.20
2019-05-18T10:36:40.239Z,99087.23
2019-05-18T10:41:44.983Z,99096.87
2019-05-18T10:46:50.162Z,99090.09
2019-05-18T10:51:55.383Z,99095.25
2019-05-18T10:57:00.054Z,99103.31
2019-05-18T11:02:05.715Z,99094.41
2019-05-18T11:07:10.340Z,99100.69
2019-05-18T11:12:16.290Z,99098.95
2019-05-18T11:17:21.205Z,99097.84
2019-05-18T11:22:26.471Z,99095.66
2019-05-18T11:27:31.541Z,99102.59
2019-05-18T11:32:37.166Z,99098.83
2019-05-18T11:37:42.170Z,99105.73
2019-05-18T11:42:47.366Z,99109.94
2019-05-18T11:47:52.674Z,99109.72
2019-05-18T11:52:57.885Z,99106.02
2019-05-18T11:58:02.659Z,99115.64
2019-05-18T12:03:07.239Z,99116.72
2019-05-18T12:08:11.901Z,99108.78
2019-05-18T12:13:17.093Z,99108.56
2019-05-18T12:18:21.951Z,99106.04
2019-05-18T12:23:26.754Z,99106.48
2019-05-18T12:28:31.639Z,99108.05
2019-05-18T12:33:37.012Z,99106.97
2019-05-18T12:38:41.715Z,99113.69
2019-05-18T12:43:46.991Z,99118.74
2019-05-18T12:48:51.750Z,99111.46
2019-05-18T12:53:56.504Z,99122.28
2019-05-18T12:59:01.255Z,99130.72
2019-05-18T13:04:06.086Z,99127.21
2019-05-18T13:09:11.483Z,99135.86
2019-05-18T13:14:16.602Z,99141.25
2019-05-18T13:19:21.488Z,99148.68
2019-05-18T13:24:26.289Z,99147.37
2019-05-18T13:29:31.092Z,99144.22
2019-05-18T13:34:36.243Z,99146.78
2019-05-18T13:39:40.894Z,99142.45
2019-05-18T13:44:45.545Z,99148.22
2019-05-18T13:49:50.380Z,99149.02
2019-05-18T13:55:03.611Z,99148.42
2019-05-18T14:00:02.044Z,99145.18
2019-05-18T14:05:07.194Z,99143.30
2019-05-18T14:10:12.722Z,99148.84
2019-05-18T14:15:17.872Z,99157.86
2019-05-18T14:20:26.064Z,99165.03
2019-05-18T14:25:29.439Z,99170.95
2019-05-18T14:30:34.195Z,99163.42
2019-05-18T14:35:39.039Z,99170.82
2019-05-18T14:40:43.989Z,99178.50
2019-05-18T14:45:49.536Z,99172.71
2019-05-18T14:50:55.114Z,99166.00
2019-05-18T14:56:00.032Z,99177.45
2019-05-18T15:01:04.691Z,99173.55
2019-05-18T15:06:09.461Z,99175.66
2019-05-18T15:11:14.211Z,99178.71
2019-05-18T15:16:18.990Z,99175.65
2019-05-18T15:21:24.344Z,99178.19
2019-05-18T15:26:29.046Z,99179.66
2019-05-18T15:31:33.765Z,99190.96
2019-05-18T15:36:38.548Z,99193.39
2019-05-18T15:41:43.413Z,99196.70
2019-05-18T15:46:48.196Z,99198.55
2019-05-18T15:51:53.495Z,99192.80
2019-05-18T15:56:58.137Z,99195.84
2019-05-18T16:02:06.481Z,99201.22
2019-05-18T16:07:09.459Z,99204.45
2019-05-18T16:12:14.332Z,99204.23
2019-05-18T16:17:19.068Z,99210.96
2019-05-18T16:22:24.344Z,99222.34
2019-05-18T16:27:29.915Z,99223.08
2019-05-18T16:32:35.046Z,99223.31
2019-05-18T16:37:40.367Z,99233.70
2019-05-18T16:42:46.664Z,99233.97
2019-05-18T16:47:51.494Z,99234.81
2019-05-18T16:52:56.416Z,99251.86
2019-05-18T16:58:01.051Z,99249.45
2019-05-18T17:03:05.681Z,99252.34
2019-05-18T17:08:10.507Z,99249.11
2019-05-18T17:13:15.638Z,99247.70
2019-05-18T17:18:20.273Z,99248.81
2019-05-18T17:23:25.214Z,99254.48
2019-05-18T17:28:30.209Z,99258.89
2019-05-18T17:33:34.957Z,99254.06
2019-05-18T17:38:39.641Z,99255.95
2019-05-18T17:43:44.656Z,99259.03
2019-05-18T17:54:00.046Z,99265.55
2019-05-18T17:59:04.665Z,99273.88
2019-05-18T18:04:09.264Z,99276.22
2019-05-18T18:09:13.987Z,99274.14
2019-05-18T18:14:18.832Z,99276.31
2019-05-18T18:24:28.259Z,99277.88
2019-05-18T18:29:32.944Z,99284.64
2019-05-18T18:34:37.580Z,99279.63
2019-05-18T18:39:42.305Z,99283.13
2019-05-18T18:44:47.186Z,99291.87
2019-05-18T18:49:51.796Z,99291.87
2019-05-18T19:05:57.918Z,99311.01
2019-05-18T19:16:13.756Z,99301.70
2019-05-18T19:21:18.561Z,99321.52
2019-05-18T19:26:23.591Z,99316.52
2019-05-18T19:31:28.470Z,99307.70
2019-05-18T19:36:33.190Z,99316.78
2019-05-18T19:41:37.870Z,99319.44
2019-05-18T19:46:42.669Z,99319.09
2019-05-18T19:51:47.289Z,99321.97
2019-05-18T19:56:52.212Z,99323.97
2019-05-18T20:01:57.090Z,99323.47
2019-05-18T20:07:01.840Z,99335.28
2019-05-18T20:12:06.609Z,99331.53
2019-05-18T20:17:11.382Z,99338.63
2019-05-18T20:22:16.030Z,99344.81
2019-05-18T20:27:20.927Z,99345.96
2019-05-18T20:32:25.926Z,99348.16
2019-05-18T20:37:30.859Z,99352.35
2019-05-18T20:42:37.686Z,99363.97
2019-05-18T20:47:42.012Z,99362.59
2019-05-18T20:52:46.849Z,99364.41
2019-05-18T20:57:51.530Z,99360.37
2019-05-18T21:02:56.370Z,99362.57
2019-05-18T21:08:01.169Z,99370.38
2019-05-18T21:13:05.873Z,99367.79
2019-05-18T21:18:10.650Z,99360.90
2019-05-18T21:23:15.587Z,99373.28
2019-05-18T21:28:20.431Z,99364.80
2019-05-18T21:33:25.146Z,99371.13
2019-05-18T21:38:29.798Z,99369.06
2019-05-18T21:43:34.721Z,99374.86
2019-05-18T21:48:39.409Z,99379.59
2019-05-18T21:53:44.169Z,99383.87
2019-05-18T21:58:48.965Z,99379.91
2019-05-18T22:03:53.669Z,99383.25
2019-05-18T22:08:58.513Z,99390.44
2019-05-18T22:14:03.556Z,99389.69
2019-05-18T22:19:08.358Z,99401.35
2019-05-18T22:24:13.449Z,99394.86
2019-05-18T22:29:18.099Z,99393.26
2019-05-18T22:34:22.912Z,99389.59
2019-05-18T22:39:27.642Z,99387.45
2019-05-18T22:44:33.429Z,99381.34
2019-05-18T22:49:38.170Z,99374.94
2019-05-18T22:54:42.834Z,99376.63
2019-05-18T22:59:47.981Z,99377.70
2019-05-18T23:04:52.729Z,99382.06
2019-05-18T23:09:57.543Z,99378.84
2019-05-18T23:15:02.229Z,99375.04
2019-05-18T23:20:07.542Z,99375.76
2019-05-18T23:25:12.548Z,99379.36
2019-05-18T23:30:17.394Z,99377.14
2019-05-18T23:35:22.366Z,99378.28
2019-05-18T23:40:27.150Z,99381.22
2019-05-18T23:45:31.863Z,99372.77
2019-05-18T23:50:36.570Z,99374.72
2019-05-18T23:55:41.305Z,99376.63
